createdAt,value
2022-11-23T00:01:38.998Z,9.50
2022-11-23T00:04:10.785Z,10.00
2022-11-23T00:06:39.310Z,9.70
2022-11-23T00:09:08.843Z,9.90
2022-11-23T00:11:37.544Z,9.50
2022-11-23T00:14:06.323Z,10.00
2022-11-23T00:16:35.058Z,10.10
2022-11-23T00:19:05.181Z,10.10
2022-11-23T00:21:34.213Z,10.50
2022-11-23T00:24:03.153Z,10.20
2022-11-23T00:26:31.804Z,10.00
2022-11-23T00:29:00.172Z,10.10
2022-11-23T00:31:28.743Z,10.10
2022-11-23T00:33:58.624Z,10.00
2022-11-23T00:36:29.159Z,10.40
2022-11-23T00:38:58.024Z,9.90
2022-11-23T00:41:28.612Z,10.30
2022-11-23T00:43:57.061Z,10.20
2022-11-23T00:46:26.859Z,10.30
2022-11-23T00:48:57.650Z,10.30
2022-11-23T00:51:29.479Z,10.40
2022-11-23T00:53:58.491Z,10.30
2022-11-23T00:56:27.390Z,10.80
2022-11-23T00:58:57.742Z,10.50
2022-11-23T01:01:29.178Z,10.60
2022-11-23T01:03:59.883Z,11.00
2022-11-23T01:06:31.752Z,10.50
2022-11-23T01:09:03.461Z,10.20
2022-11-23T01:11:33.366Z,10.40
2022-11-23T03:47:27.154Z,10.50
2022-11-23T03:49:55.508Z,11.40
2022-11-23T04:02:18.488Z,11.40
2022-11-23T04:04:48.192Z,10.90
2022-11-23T04:07:16.657Z,10.70
2022-11-23T04:09:45.067Z,10.70
2022-11-23T04:12:13.432Z,10.80
2022-11-23T04:14:41.783Z,11.30
2022-11-23T04:17:10.166Z,11.50
2022-11-23T04:19:38.512Z,11.70
2022-11-23T04:22:08.277Z,11.10
2022-11-23T04:24:36.631Z,11.80
2022-11-23T04:27:05.251Z,12.00
2022-11-23T04:29:33.912Z,11.20
2022-11-23T04:32:02.532Z,10.80
2022-11-23T04:34:30.915Z,11.80
2022-11-23T04:36:59.275Z,11.40
2022-11-23T04:39:29.283Z,11.80
2022-11-23T04:41:57.798Z,11.60
2022-11-23T04:46:54.954Z,11.20
2022-11-23T04:54:20.742Z,10.10
2022-11-23T04:56:50.418Z,10.80
2022-11-23T04:59:19.654Z,10.20
2022-11-23T05:01:47.999Z,11.20
2022-11-23T05:04:18.020Z,11.00
2022-11-23T05:06:46.523Z,11.50
2022-11-23T05:09:15.015Z,11.70
2022-11-23T05:11:43.376Z,11.90
2022-11-23T05:14:13.120Z,12.00
2022-11-23T05:16:41.633Z,12.40
2022-11-23T05:19:10.184Z,11.10
2022-11-23T05:21:38.544Z,11.00
2022-11-23T05:24:07.683Z,11.60
2022-11-23T05:26:36.021Z,11.40
2022-11-23T05:29:04.439Z,11.20
2022-11-23T05:31:34.146Z,11.20
2022-11-23T05:34:04.552Z,11.50
2022-11-23T05:36:32.908Z,11.00
2022-11-23T05:39:01.267Z,11.30
2022-11-23T05:41:29.619Z,11.10
2022-11-23T05:43:58.071Z,11.40
2022-11-23T05:53:53.645Z,10.70
2022-11-23T05:56:21.982Z,11.00
2022-11-23T05:58:50.333Z,10.90
2022-11-23T06:01:18.663Z,10.60
2022-11-23T06:03:47.058Z,10.00
2022-11-23T06:06:16.884Z,10.20
2022-11-23T06:08:49.015Z,10.20
2022-11-23T06:11:18.001Z,10.20
2022-11-23T06:13:48.640Z,10.60
2022-11-23T06:16:17.471Z,11.20
2022-11-23T06:18:45.845Z,11.70
2022-11-23T06:23:44.201Z,11.50
2022-11-23T06:26:12.635Z,10.90
2022-11-23T06:28:41.321Z,10.80
2022-11-23T06:31:11.046Z,10.00
2022-11-23T06:33:40.069Z,10.20
2022-11-23T06:36:11.173Z,10.50
2022-11-23T06:38:40.022Z,10.30
2022-11-23T06:41:09.759Z,10.70
2022-11-23T06:43:38.228Z,10.80
2022-11-23T06:46:08.516Z,10.60
2022-11-23T06:48:36.872Z,11.10
2022-11-23T06:51:05.607Z,10.90
2022-11-23T06:53:33.955Z,10.10
2022-11-23T06:56:02.564Z,11.00
2022-11-23T06:58:32.409Z,10.50
2022-11-23T07:01:02.204Z,11.40
2022-11-23T07:03:30.791Z,11.30
2022-11-23T07:05:59.572Z,10.70
2022-11-23T07:08:28.544Z,11.30
2022-11-23T07:11:02.559Z,11.10
2022-11-23T07:13:32.271Z,10.10
2022-11-23T07:16:00.860Z,10.30
2022-11-23T07:18:29.444Z,10.00
2022-11-23T07:20:59.907Z,10.30
2022-11-23T07:23:28.529Z,10.70
2022-11-23T07:25:56.944Z,11.00
2022-11-23T07:28:25.251Z,10.40
2022-11-23T07:30:54.985Z,10.80
2022-11-23T07:33:23.343Z,11.00
2022-11-23T07:35:51.746Z,10.60
2022-11-23T07:38:20.107Z,10.60
2022-11-23T07:40:51.495Z,10.60
2022-11-23T07:43:19.859Z,10.80
2022-11-23T07:45:48.290Z,10.90
2022-11-23T07:48:18.720Z,10.30
2022-11-23T07:50:47.164Z,11.10
2022-11-23T07:53:15.500Z,11.00
2022-11-23T07:55:43.877Z,11.10
2022-11-23T07:58:12.629Z,11.00
2022-11-23T08:00:40.985Z,10.70
2022-11-23T08:03:27.253Z,11.30
2022-11-23T08:05:58.117Z,10.60
2022-11-23T08:08:26.715Z,10.70
2022-11-23T08:10:55.130Z,10.50
2022-11-23T08:13:24.051Z,10.20
2022-11-23T08:15:55.321Z,10.30
2022-11-23T08:18:24.341Z,10.10
2022-11-23T08:20:52.917Z,10.40
2022-11-23T08:23:23.153Z,10.10
2022-11-23T08:25:51.475Z,10.60
2022-11-23T08:28:20.208Z,10.60
2022-11-23T08:30:49.616Z,10.20
2022-11-23T08:33:18.023Z,10.50
2022-11-23T08:35:46.401Z,10.10
2022-11-23T08:38:16.578Z,10.30
2022-11-23T08:40:46.372Z,10.70
2022-11-23T08:43:14.724Z,10.70
2022-11-23T08:45:43.081Z,10.60
2022-11-23T08:48:11.544Z,10.80
2022-11-23T08:50:39.910Z,10.40
2022-11-23T08:53:08.238Z,10.30
2022-11-23T08:55:36.661Z,10.60
2022-11-23T08:58:12.958Z,10.50
2022-11-23T09:00:41.886Z,10.50
2022-11-23T09:03:10.602Z,11.00
2022-11-23T09:08:09.051Z,10.70
2022-11-23T09:48:36.659Z,11.40
2022-11-23T09:51:14.565Z,11.60
2022-11-23T10:01:27.752Z,11.40
2022-11-23T10:03:56.555Z,11.70
2022-11-23T10:06:28.559Z,11.50
2022-11-23T10:09:16.046Z,11.70
2022-11-23T10:12:22.174Z,11.60
2022-11-23T10:15:04.118Z,12.00
2022-11-23T10:18:20.299Z,12.10
2022-11-23T10:21:02.158Z,11.90
2022-11-23T10:23:51.164Z,11.80
2022-11-23T10:26:22.627Z,11.40
2022-11-23T10:28:51.960Z,11.50
2022-11-23T10:39:01.775Z,11.30
2022-11-23T10:46:41.569Z,10.80
2022-11-23T10:49:19.431Z,11.10
2022-11-23T10:51:56.131Z,11.60
2022-11-23T11:07:29.200Z,11.30
2022-11-23T11:10:01.075Z,11.10
2022-11-23T11:12:33.710Z,10.90
2022-11-23T11:15:15.614Z,10.90
2022-11-23T11:17:44.161Z,11.10
2022-11-23T11:20:38.214Z,10.90
2022-11-23T11:28:26.550Z,11.00
2022-11-23T11:31:19.227Z,11.20
2022-11-23T11:33:54.995Z,11.00
2022-11-23T11:36:29.718Z,11.40
2022-11-23T11:41:50.473Z,11.30
2022-11-23T11:44:23.242Z,11.10
2022-11-23T11:47:00.597Z,10.90
2022-11-23T11:49:34.138Z,11.20
2022-11-23T11:57:23.820Z,11.10
2022-11-23T11:59:57.791Z,11.20
2022-11-23T12:02:30.107Z,11.30
2022-11-23T12:05:08.817Z,11.60
2022-11-23T12:07:44.679Z,11.50
2022-11-23T12:10:19.548Z,11.40
2022-11-23T12:12:48.797Z,11.40
2022-11-23T12:15:47.913Z,11.50
2022-11-23T12:18:38.554Z,11.80
2022-11-23T12:21:21.376Z,11.50
2022-11-23T12:24:08.176Z,11.40
2022-11-23T12:26:51.827Z,11.30
2022-11-23T12:29:53.237Z,11.30
2022-11-23T12:32:34.988Z,11.20
2022-11-23T12:35:36.068Z,11.50
2022-11-23T12:38:20.595Z,11.30
2022-11-23T12:41:21.324Z,11.70
2022-11-23T12:44:25.326Z,11.70
2022-11-23T16:37:47.866Z,12.70
2022-11-23T16:40:18.084Z,12.50
2022-11-23T16:42:51.954Z,12.20
2022-11-23T16:45:20.453Z,11.30
2022-11-23T16:47:56.541Z,10.80
2022-11-23T16:50:25.594Z,10.60
2022-11-23T16:52:54.463Z,9.70
2022-11-23T16:55:24.140Z,9.70
2022-11-23T16:57:52.461Z,10.00
2022-11-23T17:00:23.589Z,10.30
2022-11-23T17:02:51.921Z,10.80
2022-11-23T17:05:23.878Z,10.30
2022-11-23T17:07:52.315Z,9.90
2022-11-23T17:10:20.699Z,10.30
2022-11-23T17:12:53.790Z,10.70
2022-11-23T17:15:25.043Z,10.20
2022-11-23T17:17:53.702Z,10.40
2022-11-23T17:20:22.111Z,10.30
2022-11-23T17:22:51.743Z,10.40
2022-11-23T17:25:20.596Z,10.20
2022-11-23T17:27:50.276Z,10.00
2022-11-23T17:30:22.480Z,10.50
2022-11-23T17:32:51.361Z,10.40
2022-11-23T17:35:19.796Z,10.70
2022-11-23T17:45:17.051Z,10.70
2022-11-23T17:47:46.776Z,10.10
2022-11-23T17:50:19.403Z,9.90
2022-11-23T17:55:17.558Z,10.70
2022-11-23T18:02:48.942Z,10.90
2022-11-23T18:05:21.546Z,10.10
2022-11-23T18:07:50.839Z,10.20
2022-11-23T18:10:19.599Z,10.20
2022-11-23T18:15:18.158Z,10.70
2022-11-23T18:17:46.509Z,11.60
2022-11-23T18:20:15.605Z,10.50
2022-11-23T18:52:37.435Z,10.70
2022-11-23T19:07:33.351Z,11.20
2022-11-23T19:19:56.497Z,10.30
2022-11-23T19:22:25.135Z,12.30
2022-11-23T19:24:54.838Z,11.80
2022-11-23T19:27:23.131Z,10.90
2022-11-23T19:37:17.397Z,10.20
2022-11-23T19:39:46.851Z,11.60
2022-11-23T19:52:19.416Z,11.30
2022-11-23T20:22:14.958Z,10.60
2022-11-23T20:24:43.240Z,11.70
2022-11-23T20:27:11.600Z,11.40
2022-11-23T20:29:41.353Z,11.30
2022-11-23T20:32:10.165Z,10.60
2022-11-23T20:39:35.628Z,10.70
2022-11-23T20:42:03.980Z,10.90
2022-11-23T20:44:34.121Z,10.90
2022-11-23T20:47:04.274Z,10.50
2022-11-23T20:49:33.135Z,11.10
2022-11-23T20:52:01.958Z,10.90
2022-11-23T20:54:30.369Z,10.90
2022-11-23T20:57:00.236Z,11.70
2022-11-23T20:59:29.212Z,11.60
2022-11-23T21:01:57.615Z,11.40
2022-11-23T21:04:27.855Z,11.20
2022-11-23T21:06:56.161Z,11.60
2022-11-23T21:09:24.477Z,11.70
2022-11-23T21:12:10.369Z,11.10
2022-11-23T21:14:38.706Z,10.70
2022-11-23T21:17:07.162Z,10.80
2022-11-23T21:19:39.216Z,11.20
2022-11-23T21:22:10.712Z,10.70
2022-11-23T21:24:39.614Z,10.50
2022-11-23T21:29:40.413Z,10.30
2022-11-23T21:32:08.780Z,11.10
2022-11-23T21:34:38.524Z,11.20
2022-11-23T21:37:06.861Z,11.40
2022-11-23T21:39:35.126Z,11.80
2022-11-23T21:42:03.446Z,12.10
2022-11-23T21:44:32.094Z,12.10
2022-11-23T21:49:29.657Z,12.10
2022-11-23T21:54:27.911Z,11.40
2022-11-23T21:56:56.264Z,11.80
2022-11-23T21:59:24.791Z,11.60
2022-11-23T22:01:57.123Z,11.90
2022-11-23T22:04:25.786Z,11.60
2022-11-23T22:06:54.186Z,12.00
2022-11-23T22:09:23.884Z,12.10
2022-11-23T22:11:52.179Z,11.60
2022-11-23T22:14:22.013Z,11.00
2022-11-23T22:16:51.116Z,10.80
2022-11-23T22:19:19.569Z,11.20
2022-11-23T22:21:48.320Z,11.30
2022-11-23T22:24:21.217Z,11.20
2022-11-23T22:26:50.889Z,11.80
2022-11-23T22:29:19.204Z,11.50
2022-11-23T22:31:47.515Z,11.90
2022-11-23T22:34:16.444Z,11.50
2022-11-23T22:39:13.329Z,11.30
2022-11-23T22:41:41.730Z,11.20
2022-11-23T22:44:11.949Z,11.40
2022-11-23T22:46:40.487Z,11.70
2022-11-23T22:49:08.898Z,11.30
2022-11-23T22:54:06.110Z,10.90
2022-11-23T22:56:34.653Z,11.40
2022-11-23T22:59:03.451Z,11.20
2022-11-23T23:01:33.394Z,11.30
2022-11-23T23:04:04.305Z,11.50
2022-11-23T23:06:34.919Z,11.60
2022-11-23T23:09:06.070Z,11.20
2022-11-23T23:24:02.130Z,11.50
2022-11-23T23:29:02.435Z,11.30
2022-11-23T23:31:31.508Z,11.00
2022-11-23T23:34:02.401Z,10.40
2022-11-23T23:36:30.785Z,10.50
2022-11-23T23:43:56.408Z,10.80
2022-11-23T23:46:24.722Z,11.00
2022-11-23T23:48:53.133Z,10.80
2022-11-23T23:51:24.904Z,10.70
2022-11-23T23:53:53.971Z,10.90
2022-11-23T23:56:24.956Z,10.40
2022-11-23T23:58:53.687Z,10.50
